Fairplay, CO (80440)

11:59 PM MDT on August 27, 2014 (GMT -0600)
Redhill Forest-West Slope | Change Station
CLOSE
Current Station
Personal Weather Station
Location: Fairplay, CO
Elevation: 9731 ft
Nearby Weather Stations

Elev 9731 ft 39.16 °N, 105.93 °W | Updated 11 minutes ago

Partly Cloudy
Partly Cloudy
43.3 °F
Feels Like 40 °F
N
5.3
Wind Variable Wind from NW

Today
High -- | Low -- °F
--% Chance of Precip.
Yesterday
High -- | Low -- °F
Precip. -- in
6:28 AM 7:42 PM
Waxing Crescent, 6% visible
Pressure 30.04 in
Visibility 10.0 miles
Clouds Scattered Clouds 4800 ft
Overcast 6000 ft
Windchill 40 °F
Dew Point 33 °F
Humidity 66%
Rainfall 0.08 in
Snow Depth 0 in , 0 in , 1 in
UV 0 out of 12
Pollen 8.10 out of 12
Air Quality Not available.
Flu Activity Not available.
METAR KLXV 280553Z AUTO 36007KT 10SM SCT048 OVC060 06/02 A3042 RMK AO2 SLP171 T00560017 10100 20039 58003

More Conditions Fewer Conditions

Pressure 30.04 in
Visibility 10.0 miles
Clouds Scattered Clouds 4800 ft
Overcast 6000 ft
Windchill 40 °F
Dew Point 33 °F
Humidity 66%
Rainfall 0.08 in
Snow Depth 0 in , 0 in , 1 in
UV 0 out of 12
Pollen 8.10 out of 12
Air Quality Not available.
Flu Activity Not available.
METAR KLXV 280553Z AUTO 36007KT 10SM SCT048 OVC060 06/02 A3042 RMK AO2 SLP171 T00560017 10100 20039 58003

More Conditions Fewer Conditions

10-Day Weather Forecast

Almanac

Astronomy

Aug. 27, 2014 Rise Set
Actual Time 6:28 AM MDT 7:42 PM MDT
Civil Twilight 6:00 AM MDT 8:09 PM MDT
Nautical Twilight 5:27 AM MDT 8:42 PM MDT
Astronomical Twilight 4:52 AM MDT 9:17 PM MDT
Moon 8:25 AM MDT (8/27) 8:37 PM MDT (8/27)
Length of Visible Light 14h 09m
Length of Day
13h 14m
Tomorrow will be 2m 25s shorter.
Waxing Crescent, 6% of the Moon is Illuminated
Aug 28
Waxing Crescent
Sep 2
First Quarter
Sep 8
Full
Sep 15
Last Quarter
Sep 24
New

Yesterday's Extremes

State Highs State Lows

Community

WunderPhotos

Upload Photos

1,747,909 photos uploaded!

Nearby

Snow Depth

Station Depth Elevation
Buckskin Joe 0 in 11150 ft
Hoosier Pass 0 in 11400 ft
Rough And Tumble 1 in 10360 ft
Michigan Creek 0 in 10600 ft
Fremont Pass 0 in 11400 ft

Earthquake Activity

City Distance Mag. Time & Date
No recent earthquake activity has been reported nearby.
Minimum magnitude displayed is 2.5.

Coastal Water Temperatures

Place Temperature
No Stations Reporting

Nearby Weather Stations